sensor_id;sensor_type;location;lat;lon;timestamp;pressure;altitude;pressure_sealevel;temperature;humidity
72587;BME280;60621;49.576;11.024;2022-09-03T00:00:35;98156.97;;;16.59;48.86
72587;BME280;60621;49.576;11.024;2022-09-03T00:01:45;98150.41;;;16.68;48.72
72587;BME280;60621;49.576;11.024;2022-09-03T00:02:58;98143.66;;;16.59;48.90
72587;BME280;60621;49.576;11.024;2022-09-03T00:04:06;98151.59;;;16.63;48.96
72587;BME280;60621;49.576;11.024;2022-09-03T00:06:25;98147.00;;;16.67;48.56
72587;BME280;60621;49.576;11.024;2022-09-03T00:07:39;98148.19;;;16.62;48.82
72587;BME280;60621;49.576;11.024;2022-09-03T00:09:11;98144.06;;;16.58;49.01
72587;BME280;60621;49.576;11.024;2022-09-03T00:10:21;98144.06;;;16.58;49.04
72587;BME280;60621;49.576;11.024;2022-09-03T00:11:28;98146.34;;;16.56;49.12
72587;BME280;60621;49.576;11.024;2022-09-03T00:12:37;98146.88;;;16.44;49.46
72587;BME280;60621;49.576;11.024;2022-09-03T00:13:46;98149.09;;;16.49;49.39
72587;BME280;60621;49.576;11.024;2022-09-03T00:15:09;98153.00;;;16.37;49.50
72587;BME280;60621;49.576;11.024;2022-09-03T00:16:14;98146.59;;;16.31;49.86
72587;BME280;60621;49.576;11.024;2022-09-03T00:17:24;98140.03;;;16.43;49.73
72587;BME280;60621;49.576;11.024;2022-09-03T00:18:30;98146.50;;;16.42;49.82
72587;BME280;60621;49.576;11.024;2022-09-03T00:19:37;98140.25;;;16.55;49.11
72587;BME280;60621;49.576;11.024;2022-09-03T00:20:44;98136.09;;;16.54;49.26
72587;BME280;60621;49.576;11.024;2022-09-03T00:21:54;98137.91;;;16.61;49.09
72587;BME280;60621;49.576;11.024;2022-09-03T00:23:04;98144.84;;;16.55;49.10
72587;BME280;60621;49.576;11.024;2022-09-03T00:24:10;98149.00;;;16.56;49.26
72587;BME280;60621;49.576;11.024;2022-09-03T00:25:37;98139.88;;;16.57;49.28
72587;BME280;60621;49.576;11.024;2022-09-03T00:26:44;98149.28;;;16.31;49.83
72587;BME280;60621;49.576;11.024;2022-09-03T00:27:50;98151.75;;;16.11;50.54
72587;BME280;60621;49.576;11.024;2022-09-03T00:29:02;98144.53;;;16.08;50.90
72587;BME280;60621;49.576;11.024;2022-09-03T00:30:13;98143.88;;;15.97;51.34
72587;BME280;60621;49.576;11.024;2022-09-03T00:31:29;98142.25;;;16.10;50.88
72587;BME280;60621;49.576;11.024;2022-09-03T00:33:49;98143.97;;;16.27;50.26
72587;BME280;60621;49.576;11.024;2022-09-03T00:35:02;98136.66;;;16.38;49.92
72587;BME280;60621;49.576;11.024;2022-09-03T00:36:22;98140.50;;;16.34;49.99
72587;BME280;60621;49.576;11.024;2022-09-03T00:37:26;98139.41;;;16.28;50.09
72587;BME280;60621;49.576;11.024;2022-09-03T00:38:37;98134.50;;;16.23;50.36
72587;BME280;60621;49.576;11.024;2022-09-03T00:39:39;98132.28;;;16.18;50.57
72587;BME280;60621;49.576;11.024;2022-09-03T00:42:32;98139.91;;;16.16;50.57
72587;BME280;60621;49.576;11.024;2022-09-03T00:44:13;98136.25;;;15.99;50.98
72587;BME280;60621;49.576;11.024;2022-09-03T00:45:32;98135.50;;;15.98;51.06
72587;BME280;60621;49.576;11.024;2022-09-03T00:50:03;98135.53;;;15.95;51.25
72587;BME280;60621;49.576;11.024;2022-09-03T00:53:59;98142.25;;;16.10;51.03
72587;BME280;60621;49.576;11.024;2022-09-03T00:55:19;98149.00;;;16.18;50.82
72587;BME280;60621;49.576;11.024;2022-09-03T00:59:30;98148.13;;;15.91;51.65
72587;BME280;60621;49.576;11.024;2022-09-03T01:00:40;98148.16;;;15.87;51.77
72587;BME280;60621;49.576;11.024;2022-09-03T01:01:50;98149.56;;;15.99;51.49
72587;BME280;60621;49.576;11.024;2022-09-03T01:03:04;98143.47;;;16.02;51.12
72587;BME280;60621;49.576;11.024;2022-09-03T01:05:18;98147.16;;;16.11;51.04
72587;BME280;60621;49.576;11.024;2022-09-03T01:06:16;98144.97;;;16.03;51.23
72587;BME280;60621;49.576;11.024;2022-09-03T01:07:27;98144.66;;;15.94;51.62
72587;BME280;60621;49.576;11.024;2022-09-03T01:11:31;98144.53;;;16.08;50.94
72587;BME280;60621;49.576;11.024;2022-09-03T01:13:09;98144.28;;;15.95;51.16
72587;BME280;60621;49.576;11.024;2022-09-03T01:16:20;98140.91;;;15.87;51.54
72587;BME280;60621;49.576;11.024;2022-09-03T01:17:39;98144.00;;;15.82;51.79
72587;BME280;60621;49.576;11.024;2022-09-03T01:21:57;98144.78;;;15.76;52.22
72587;BME280;60621;49.576;11.024;2022-09-03T01:26:29;98153.44;;;15.91;51.74
72587;BME280;60621;49.576;11.024;2022-09-03T01:28:04;98151.84;;;16.00;51.55
72587;BME280;60621;49.576;11.024;2022-09-03T01:30:21;98155.56;;;16.10;51.07
72587;BME280;60621;49.576;11.024;2022-09-03T01:32:47;98148.03;;;16.01;51.26
72587;BME280;60621;49.576;11.024;2022-09-03T01:34:02;98151.91;;;15.90;51.76
72587;BME280;60621;49.576;11.024;2022-09-03T01:37:00;98147.09;;;15.74;52.14
72587;BME280;60621;49.576;11.024;2022-09-03T01:38:50;98152.47;;;15.63;52.56
72587;BME280;60621;49.576;11.024;2022-09-03T01:45:11;98140.59;;;15.82;52.03
72587;BME280;60621;49.576;11.024;2022-09-03T01:46:25;98149.31;;;15.82;52.10
72587;BME280;60621;49.576;11.024;2022-09-03T01:49:26;98144.44;;;15.74;52.29
72587;BME280;60621;49.576;11.024;2022-09-03T01:51:40;98152.47;;;15.63;52.92
72587;BME280;60621;49.576;11.024;2022-09-03T01:54:23;98141.75;;;15.81;52.18
72587;BME280;60621;49.576;11.024;2022-09-03T01:57:46;98146.78;;;15.61;52.99
72587;BME280;60621;49.576;11.024;2022-09-03T01:58:57;98153.28;;;15.56;52.98
72587;BME280;60621;49.576;11.024;2022-09-03T02:00:06;98151.09;;;15.44;53.33
72587;BME280;60621;49.576;11.024;2022-09-03T02:01:17;98144.56;;;15.52;53.03
72587;BME280;60621;49.576;11.024;2022-09-03T02:02:25;98150.94;;;15.66;52.57
72587;BME280;60621;49.576;11.024;2022-09-03T02:03:34;98158.25;;;15.51;52.83
72587;BME280;60621;49.576;11.024;2022-09-03T02:04:41;98161.34;;;15.42;53.16
72587;BME280;60621;49.576;11.024;2022-09-03T02:05:43;98153.78;;;15.37;53.48
72587;BME280;60621;49.576;11.024;2022-09-03T02:06:49;98162.16;;;15.32;53.82
72587;BME280;60621;49.576;11.024;2022-09-03T02:07:59;98158.00;;;15.31;53.80
72587;BME280;60621;49.576;11.024;2022-09-03T02:09:01;98153.84;;;15.23;54.07
72587;BME280;60621;49.576;11.024;2022-09-03T02:10:07;98149.22;;;15.37;53.71
72587;BME280;60621;49.576;11.024;2022-09-03T02:11:10;98146.94;;;15.36;53.55
72587;BME280;60621;49.576;11.024;2022-09-03T02:12:15;98156.78;;;15.43;53.49
72587;BME280;60621;49.576;11.024;2022-09-03T02:13:23;98151.50;;;15.39;53.75
72587;BME280;60621;49.576;11.024;2022-09-03T02:14:26;98153.44;;;15.31;53.99
72587;BME280;60621;49.576;11.024;2022-09-03T02:15:29;98155.41;;;15.20;54.45
72587;BME280;60621;49.576;11.024;2022-09-03T02:16:33;98161.88;;;15.19;54.52
72587;BME280;60621;49.576;11.024;2022-09-03T02:17:36;98159.63;;;15.10;54.88
72587;BME280;60621;49.576;11.024;2022-09-03T02:18:50;98164.97;;;15.03;54.90
72587;BME280;60621;49.576;11.024;2022-09-03T02:19:53;98150.16;;;15.02;55.19
72587;BME280;60621;49.576;11.024;2022-09-03T02:20:56;98152.09;;;14.98;55.47
72587;BME280;60621;49.576;11.024;2022-09-03T02:21:58;98158.56;;;14.94;55.57
72587;BME280;60621;49.576;11.024;2022-09-03T02:22:59;98151.38;;;14.87;55.71
72587;BME280;60621;49.576;11.024;2022-09-03T02:24:03;98162.00;;;14.87;55.98
72587;BME280;60621;49.576;11.024;2022-09-03T02:25:06;98156.34;;;14.81;56.01
72587;BME280;60621;49.576;11.024;2022-09-03T02:26:09;98148.75;;;14.76;55.92
72587;BME280;60621;49.576;11.024;2022-09-03T02:27:12;98154.88;;;14.63;56.37
72587;BME280;60621;49.576;11.024;2022-09-03T02:28:14;98151.09;;;14.67;56.43
72587;BME280;60621;49.576;11.024;2022-09-03T02:29:27;98157.16;;;14.64;56.52
72587;BME280;60621;49.576;11.024;2022-09-03T02:30:29;98158.22;;;14.84;55.68
72587;BME280;60621;49.576;11.024;2022-09-03T02:31:31;98155.13;;;15.00;55.39
72587;BME280;60621;49.576;11.024;2022-09-03T02:32:32;98155.50;;;14.95;55.30
72587;BME280;60621;49.576;11.024;2022-09-03T02:33:37;98157.09;;;14.78;55.67
72587;BME280;60621;49.576;11.024;2022-09-03T02:34:41;98154.09;;;14.66;56.30
72587;BME280;60621;49.576;11.024;2022-09-03T02:35:43;98159.81;;;14.60;56.63
72587;BME280;60621;49.576;11.024;2022-09-03T02:36:46;98148.47;;;14.53;56.84
72587;BME280;60621;49.576;11.024;2022-09-03T02:37:47;98152.63;;;14.50;57.15
72587;BME280;60621;49.576;11.024;2022-09-03T02:38:49;98157.94;;;14.50;57.16
72587;BME280;60621;49.576;11.024;2022-09-03T02:39:51;98156.03;;;14.51;56.87
72587;BME280;60621;49.576;11.024;2022-09-03T02:40:54;98151.13;;;14.49;57.06
72587;BME280;60621;49.576;11.024;2022-09-03T02:41:57;98149.22;;;14.50;57.00
72587;BME280;60621;49.576;11.024;2022-09-03T02:42:59;98151.84;;;14.43;57.36
72587;BME280;60621;49.576;11.024;2022-09-03T02:44:08;98141.66;;;14.48;57.48
72587;BME280;60621;49.576;11.024;2022-09-03T02:45:28;98142.78;;;14.54;57.04
72587;BME280;60621;49.576;11.024;2022-09-03T02:46:38;98154.53;;;14.53;56.94
72587;BME280;60621;49.576;11.024;2022-09-03T02:47:42;98150.34;;;14.56;57.00
72587;BME280;60621;49.576;11.024;2022-09-03T02:48:45;98148.06;;;14.58;56.98
72587;BME280;60621;49.576;11.024;2022-09-03T02:49:47;98144.31;;;14.48;57.01
72587;BME280;60621;49.576;11.024;2022-09-03T02:50:52;98145.41;;;14.47;57.02
72587;BME280;60621;49.576;11.024;2022-09-03T02:51:58;98144.28;;;14.45;57.21
72587;BME280;60621;49.576;11.024;2022-09-03T02:53:01;98140.88;;;14.44;57.24
72587;BME280;60621;49.576;11.024;2022-09-03T02:54:03;98147.34;;;14.36;57.13
72587;BME280;60621;49.576;11.024;2022-09-03T02:55:05;98142.78;;;14.37;57.59
72587;BME280;60621;49.576;11.024;2022-09-03T02:56:06;98145.44;;;14.37;57.33
72587;BME280;60621;49.576;11.024;2022-09-03T02:57:13;98145.81;;;14.31;57.65
72587;BME280;60621;49.576;11.024;2022-09-03T02:58:28;98141.28;;;14.39;57.52
72587;BME280;60621;49.576;11.024;2022-09-03T02:59:35;98145.03;;;14.42;57.53
72587;BME280;60621;49.576;11.024;2022-09-03T03:00:37;98143.88;;;14.43;57.67
72587;BME280;60621;49.576;11.024;2022-09-03T03:01:46;98131.41;;;14.36;57.88
72587;BME280;60621;49.576;11.024;2022-09-03T03:02:53;98143.16;;;14.31;57.94
72587;BME280;60621;49.576;11.024;2022-09-03T03:03:55;98133.69;;;14.34;58.10
72587;BME280;60621;49.576;11.024;2022-09-03T03:04:57;98138.63;;;14.32;57.91
72587;BME280;60621;49.576;11.024;2022-09-03T03:06:03;98138.63;;;14.32;57.77
72587;BME280;60621;49.576;11.024;2022-09-03T03:07:12;98146.25;;;14.16;58.19
72587;BME280;60621;49.576;11.024;2022-09-03T03:08:14;98144.34;;;14.20;57.98
72587;BME280;60621;49.576;11.024;2022-09-03T03:09:20;98133.72;;;14.16;58.13
72587;BME280;60621;49.576;11.024;2022-09-03T03:10:22;98138.25;;;14.23;58.05
72587;BME280;60621;49.576;11.024;2022-09-03T03:11:24;98137.13;;;14.20;58.02
72587;BME280;60621;49.576;11.024;2022-09-03T03:12:26;98136.75;;;14.15;58.40
72587;BME280;60621;49.576;11.024;2022-09-03T03:13:33;98139.41;;;14.11;58.31
72587;BME280;60621;49.576;11.024;2022-09-03T03:14:40;98136.41;;;14.05;58.88
72587;BME280;60621;49.576;11.024;2022-09-03T03:15:44;98139.41;;;14.04;58.93
72587;BME280;60621;49.576;11.024;2022-09-03T03:16:49;98136.75;;;14.07;59.27
72587;BME280;60621;49.576;11.024;2022-09-03T03:17:55;98133.72;;;14.09;58.77
72587;BME280;60621;49.576;11.024;2022-09-03T03:18:57;98132.59;;;14.06;58.92
72587;BME280;60621;49.576;11.024;2022-09-03T03:20:00;98130.69;;;14.03;58.98
72587;BME280;60621;49.576;11.024;2022-09-03T03:21:09;98139.41;;;14.07;58.51
72587;BME280;60621;49.576;11.024;2022-09-03T03:22:14;98145.47;;;14.04;58.39
72587;BME280;60621;49.576;11.024;2022-09-03T03:23:16;98145.09;;;14.02;58.50
72587;BME280;60621;49.576;11.024;2022-09-03T03:24:18;98143.22;;;14.03;58.42
72587;BME280;60621;49.576;11.024;2022-09-03T03:25:20;98149.63;;;14.09;58.55
72587;BME280;60621;49.576;11.024;2022-09-03T03:26:21;98145.50;;;14.01;58.78
72587;BME280;60621;49.576;11.024;2022-09-03T03:27:24;98151.16;;;13.99;59.16
72587;BME280;60621;49.576;11.024;2022-09-03T03:28:26;98145.47;;;13.94;59.06
72587;BME280;60621;49.576;11.024;2022-09-03T03:29:27;98148.53;;;13.92;59.36
72587;BME280;60621;49.576;11.024;2022-09-03T03:30:29;98147.00;;;13.84;59.24
72587;BME280;60621;49.576;11.024;2022-09-03T03:31:32;98148.16;;;13.83;59.54
72587;BME280;60621;49.576;11.024;2022-09-03T03:32:35;98153.81;;;13.85;59.50
72587;BME280;60621;49.576;11.024;2022-09-03T03:33:37;98151.94;;;13.93;59.37
72587;BME280;60621;49.576;11.024;2022-09-03T03:34:39;98151.16;;;13.89;59.49
72587;BME280;60621;49.576;11.024;2022-09-03T03:35:41;98153.06;;;13.81;59.76
72587;BME280;60621;49.576;11.024;2022-09-03T03:36:43;98148.91;;;13.80;59.33
72587;BME280;60621;49.576;11.024;2022-09-03T03:37:45;98142.09;;;13.79;59.33
72587;BME280;60621;49.576;11.024;2022-09-03T03:38:47;98142.84;;;13.83;59.42
72587;BME280;60621;49.576;11.024;2022-09-03T03:39:48;98146.63;;;13.86;59.08
72587;BME280;60621;49.576;11.024;2022-09-03T03:40:50;98145.50;;;13.79;59.48
72587;BME280;60621;49.576;11.024;2022-09-03T03:41:52;98135.63;;;13.62;59.82
72587;BME280;60621;49.576;11.024;2022-09-03T03:42:56;98136.41;;;13.63;60.01
72587;BME280;60621;49.576;11.024;2022-09-03T03:44:01;98145.09;;;13.56;60.31
72587;BME280;60621;49.576;11.024;2022-09-03T03:45:04;98139.78;;;13.56;60.18
72587;BME280;60621;49.576;11.024;2022-09-03T03:46:10;98137.13;;;13.52;59.97
72587;BME280;60621;49.576;11.024;2022-09-03T03:47:12;98135.22;;;13.53;60.45
72587;BME280;60621;49.576;11.024;2022-09-03T03:48:21;98138.66;;;13.39;60.56
72587;BME280;60621;49.576;11.024;2022-09-03T03:49:25;98139.41;;;13.40;60.54
72587;BME280;60621;49.576;11.024;2022-09-03T03:50:26;98129.94;;;13.42;60.48
72587;BME280;60621;49.576;11.024;2022-09-03T03:51:38;98139.03;;;13.48;60.03
72587;BME280;60621;49.576;11.024;2022-09-03T03:52:40;98134.50;;;13.49;60.03
72587;BME280;60621;49.576;11.024;2022-09-03T03:53:42;98139.41;;;13.50;60.29
72587;BME280;60621;49.576;11.024;2022-09-03T03:54:44;98131.84;;;13.52;60.40
72587;BME280;60621;49.576;11.024;2022-09-03T03:55:56;98133.75;;;13.48;60.20
72587;BME280;60621;49.576;11.024;2022-09-03T03:56:58;98124.66;;;13.49;60.57
72587;BME280;60621;49.576;11.024;2022-09-03T03:58:03;98132.97;;;13.48;60.28
72587;BME280;60621;49.576;11.024;2022-09-03T03:59:05;98128.03;;;13.46;60.18
72587;BME280;60621;49.576;11.024;2022-09-03T04:00:07;98133.34;;;13.46;60.38
72587;BME280;60621;49.576;11.024;2022-09-03T04:01:17;98132.56;;;13.42;60.53
72587;BME280;60621;49.576;11.024;2022-09-03T04:02:23;98132.97;;;13.48;60.60
72587;BME280;60621;49.576;11.024;2022-09-03T04:03:25;98139.41;;;13.40;60.78
72587;BME280;60621;49.576;11.024;2022-09-03T04:04:27;98133.34;;;13.36;60.58
72587;BME280;60621;49.576;11.024;2022-09-03T04:05:29;98142.41;;;13.31;61.22
72587;BME280;60621;49.576;11.024;2022-09-03T04:06:34;98136.34;;;13.38;61.14
72587;BME280;60621;49.576;11.024;2022-09-03T04:07:37;98137.88;;;13.46;60.83
72587;BME280;60621;49.576;11.024;2022-09-03T04:08:48;98134.84;;;13.47;60.43
72587;BME280;60621;49.576;11.024;2022-09-03T04:09:50;98136.38;;;13.41;60.60
72587;BME280;60621;49.576;11.024;2022-09-03T04:10:52;98133.34;;;13.46;60.65
72587;BME280;60621;49.576;11.024;2022-09-03T04:11:53;98131.09;;;13.45;60.88
72587;BME280;60621;49.576;11.024;2022-09-03T04:12:58;98129.56;;;13.47;60.50
72587;BME280;60621;49.576;11.024;2022-09-03T04:14:01;98132.97;;;13.48;60.56
72587;BME280;60621;49.576;11.024;2022-09-03T04:15:03;98132.59;;;13.46;60.98
72587;BME280;60621;49.576;11.024;2022-09-03T04:16:14;98131.06;;;13.41;61.04
72587;BME280;60621;49.576;11.024;2022-09-03T04:17:16;98129.91;;;13.24;61.17
72587;BME280;60621;49.576;11.024;2022-09-03T04:18:20;98133.25;;;13.18;61.30
72587;BME280;60621;49.576;11.024;2022-09-03T04:19:21;98130.25;;;13.16;61.77
72587;BME280;60621;49.576;11.024;2022-09-03T04:20:24;98132.50;;;13.14;62.05
72587;BME280;60621;49.576;11.024;2022-09-03T04:21:29;98130.63;;;13.18;61.89
72587;BME280;60621;49.576;11.024;2022-09-03T04:22:31;98130.25;;;13.16;61.63
72587;BME280;60621;49.576;11.024;2022-09-03T04:23:34;98135.53;;;13.16;61.75
72587;BME280;60621;49.576;11.024;2022-09-03T04:24:36;98129.91;;;13.24;61.81
72587;BME280;60621;49.576;11.024;2022-09-03T04:25:37;98127.25;;;13.24;61.80
72587;BME280;60621;49.576;11.024;2022-09-03T04:26:40;98131.06;;;13.30;61.61
72587;BME280;60621;49.576;11.024;2022-09-03T04:27:43;98131.81;;;13.27;61.81
72587;BME280;60621;49.576;11.024;2022-09-03T04:28:44;98132.16;;;13.22;61.82
72587;BME280;60621;49.576;11.024;2022-09-03T04:29:47;98131.41;;;13.22;61.81
72587;BME280;60621;49.576;11.024;2022-09-03T04:30:48;98130.28;;;13.26;61.68
72587;BME280;60621;49.576;11.024;2022-09-03T04:31:50;98131.78;;;13.24;61.74
72587;BME280;60621;49.576;11.024;2022-09-03T04:33:10;98126.88;;;13.22;61.78
72587;BME280;60621;49.576;11.024;2022-09-03T04:34:16;98134.06;;;13.32;61.80
72587;BME280;60621;49.576;11.024;2022-09-03T04:35:25;98140.13;;;13.33;61.84
72587;BME280;60621;49.576;11.024;2022-09-03T04:36:32;98134.06;;;13.29;62.07
72587;BME280;60621;49.576;11.024;2022-09-03T04:37:38;98136.72;;;13.29;62.14
72587;BME280;60621;49.576;11.024;2022-09-03T04:38:41;98136.34;;;13.27;62.05
72587;BME280;60621;49.576;11.024;2022-09-03T04:39:43;98131.44;;;13.25;62.05
72587;BME280;60621;49.576;11.024;2022-09-03T04:40:51;98134.47;;;13.35;62.20
72587;BME280;60621;49.576;11.024;2022-09-03T04:41:53;98140.50;;;13.31;61.97
72587;BME280;60621;49.576;11.024;2022-09-03T04:42:58;98136.00;;;13.46;61.63
72587;BME280;60621;49.576;11.024;2022-09-03T04:44:00;98134.13;;;13.65;60.58
72587;BME280;60621;49.576;11.024;2022-09-03T04:45:01;98142.47;;;13.63;61.14
72587;BME280;60621;49.576;11.024;2022-09-03T04:46:06;98142.84;;;13.58;61.26
72587;BME280;60621;49.576;11.024;2022-09-03T04:47:16;98148.50;;;13.53;61.55
72587;BME280;60621;49.576;11.024;2022-09-03T04:48:18;98143.56;;;13.51;61.67
72587;BME280;60621;49.576;11.024;2022-09-03T04:49:19;98144.69;;;13.47;61.42
72587;BME280;60621;49.576;11.024;2022-09-03T04:50:21;98150.75;;;13.47;61.82
72587;BME280;60621;49.576;11.024;2022-09-03T04:51:25;98146.22;;;13.51;61.40
72587;BME280;60621;49.576;11.024;2022-09-03T04:52:33;98147.00;;;13.55;61.28
72587;BME280;60621;49.576;11.024;2022-09-03T04:53:37;98144.72;;;13.57;61.53
72587;BME280;60621;49.576;11.024;2022-09-03T04:54:39;98144.34;;;13.59;61.63
72587;BME280;60621;49.576;11.024;2022-09-03T04:55:40;98153.03;;;13.52;61.64
72587;BME280;60621;49.576;11.024;2022-09-03T04:56:42;98152.28;;;13.55;61.68
72587;BME280;60621;49.576;11.024;2022-09-03T04:57:43;98150.41;;;13.56;61.71
72587;BME280;60621;49.576;11.024;2022-09-03T04:58:46;98150.41;;;13.56;61.86
72587;BME280;60621;49.576;11.024;2022-09-03T04:59:51;98145.50;;;13.58;61.76
72587;BME280;60621;49.576;11.024;2022-09-03T05:00:53;98155.31;;;13.61;61.43
72587;BME280;60621;49.576;11.024;2022-09-03T05:01:54;98151.91;;;13.64;61.70
72587;BME280;60621;49.576;11.024;2022-09-03T05:02:59;98156.44;;;13.56;62.04
72587;BME280;60621;49.576;11.024;2022-09-03T05:04:01;98158.72;;;13.54;62.46
72587;BME280;60621;49.576;11.024;2022-09-03T05:05:03;98158.75;;;13.58;62.14
72587;BME280;60621;49.576;11.024;2022-09-03T05:06:05;98161.38;;;13.62;62.25
72587;BME280;60621;49.576;11.024;2022-09-03T05:07:08;98159.88;;;13.61;61.84
72587;BME280;60621;49.576;11.024;2022-09-03T05:08:10;98160.25;;;13.63;62.24
72587;BME280;60621;49.576;11.024;2022-09-03T05:09:11;98159.50;;;13.66;62.43
72587;BME280;60621;49.576;11.024;2022-09-03T05:10:13;98164.81;;;13.98;60.85
72587;BME280;60621;49.576;11.024;2022-09-03T05:11:21;98161.78;;;14.06;60.23
72587;BME280;60621;49.576;11.024;2022-09-03T05:12:23;98158.72;;;14.04;60.83
72587;BME280;60621;49.576;11.024;2022-09-03T05:13:25;98160.63;;;14.07;60.78
72587;BME280;60621;49.576;11.024;2022-09-03T05:14:27;98157.59;;;14.16;60.24
72587;BME280;60621;49.576;11.024;2022-09-03T05:15:29;98161.38;;;14.29;59.57
72587;BME280;60621;49.576;11.024;2022-09-03T05:16:31;98155.69;;;14.34;58.67
72587;BME280;60621;49.576;11.024;2022-09-03T05:17:33;98153.00;;;14.42;58.60
72587;BME280;60621;49.576;11.024;2022-09-03T05:18:38;98157.16;;;14.43;58.70
72587;BME280;60621;49.576;11.024;2022-09-03T05:19:40;98150.72;;;14.51;58.45
72587;BME280;60621;49.576;11.024;2022-09-03T05:20:42;98150.28;;;14.67;57.64
72587;BME280;60621;49.576;11.024;2022-09-03T05:21:44;98158.63;;;14.76;57.15
72587;BME280;60621;49.576;11.024;2022-09-03T05:22:45;98156.75;;;14.69;57.31
72587;BME280;60621;49.576;11.024;2022-09-03T05:23:48;98159.44;;;14.58;57.65
72587;BME280;60621;49.576;11.024;2022-09-03T05:24:53;98163.63;;;14.45;57.92
72587;BME280;60621;49.576;11.024;2022-09-03T05:26:03;98159.09;;;14.39;58.41
72587;BME280;60621;49.576;11.024;2022-09-03T05:27:09;98167.81;;;14.35;58.66
72587;BME280;60621;49.576;11.024;2022-09-03T05:28:10;98169.34;;;14.29;58.93
72587;BME280;60621;49.576;11.024;2022-09-03T05:29:12;98165.53;;;14.27;59.10
72587;BME280;60621;49.576;11.024;2022-09-03T05:30:14;98164.41;;;14.31;58.85
72587;BME280;60621;49.576;11.024;2022-09-03T05:31:18;98165.16;;;14.32;59.01
72587;BME280;60621;49.576;11.024;2022-09-03T05:32:20;98168.56;;;14.29;59.45
72587;BME280;60621;49.576;11.024;2022-09-03T05:33:21;98171.59;;;14.27;59.68
72587;BME280;60621;49.576;11.024;2022-09-03T05:34:24;98167.44;;;14.30;59.99
72587;BME280;60621;49.576;11.024;2022-09-03T05:35:25;98170.84;;;14.27;59.73
72587;BME280;60621;49.576;11.024;2022-09-03T05:36:35;98175.78;;;14.25;59.78
72587;BME280;60621;49.576;11.024;2022-09-03T05:37:37;98170.84;;;14.27;59.43
72587;BME280;60621;49.576;11.024;2022-09-03T05:38:40;98169.69;;;14.28;59.26
72587;BME280;60621;49.576;11.024;2022-09-03T05:39:41;98170.84;;;14.27;59.22
72587;BME280;60621;49.576;11.024;2022-09-03T05:40:43;98179.94;;;14.29;59.08
72587;BME280;60621;49.576;11.024;2022-09-03T05:41:44;98179.56;;;14.27;59.23
72587;BME280;60621;49.576;11.024;2022-09-03T05:42:46;98167.03;;;14.31;59.01
72587;BME280;60621;49.576;11.024;2022-09-03T05:43:49;98162.88;;;14.34;59.04
72587;BME280;60621;49.576;11.024;2022-09-03T05:45:00;98167.06;;;14.39;59.07
72587;BME280;60621;49.576;11.024;2022-09-03T05:46:04;98164.34;;;14.64;58.52
72587;BME280;60621;49.576;11.024;2022-09-03T05:47:06;98163.94;;;14.76;58.06
72587;BME280;60621;49.576;11.024;2022-09-03T05:48:07;98158.66;;;14.72;58.26
72587;BME280;60621;49.576;11.024;2022-09-03T05:49:09;98160.47;;;14.90;57.86
72587;BME280;60621;49.576;11.024;2022-09-03T05:50:11;98163.88;;;14.90;57.58
72587;BME280;60621;49.576;11.024;2022-09-03T05:51:16;98163.91;;;14.79;58.31
72587;BME280;60621;49.576;11.024;2022-09-03T05:52:18;98161.69;;;14.67;58.37
72587;BME280;60621;49.576;11.024;2022-09-03T05:53:22;98168.91;;;14.63;58.83
72587;BME280;60621;49.576;11.024;2022-09-03T05:54:23;98172.31;;;14.56;58.49
72587;BME280;60621;49.576;11.024;2022-09-03T05:55:25;98176.13;;;14.52;58.65
72587;BME280;60621;49.576;11.024;2022-09-03T05:56:31;98173.47;;;14.55;58.73
72587;BME280;60621;49.576;11.024;2022-09-03T05:57:32;98178.78;;;14.52;58.42
72587;BME280;60621;49.576;11.024;2022-09-03T05:58:36;98171.94;;;14.47;58.92
72587;BME280;60621;49.576;11.024;2022-09-03T05:59:39;98170.81;;;14.55;58.67
72587;BME280;60621;49.576;11.024;2022-09-03T06:00:41;98170.06;;;14.58;58.50
72587;BME280;60621;49.576;11.024;2022-09-03T06:01:44;98163.22;;;14.61;58.28
72587;BME280;60621;49.576;11.024;2022-09-03T06:02:52;98169.66;;;14.64;58.15
72587;BME280;60621;49.576;11.024;2022-09-03T06:04:59;98173.81;;;14.72;58.27
72587;BME280;60621;49.576;11.024;2022-09-03T06:06:01;98171.53;;;14.77;58.43
72587;BME280;60621;49.576;11.024;2022-09-03T06:07:05;98172.63;;;14.83;58.23
72587;BME280;60621;49.576;11.024;2022-09-03T06:08:06;98181.75;;;14.86;57.83
72587;BME280;60621;49.576;11.024;2022-09-03T06:09:17;98169.19;;;14.90;57.88
72587;BME280;60621;49.576;11.024;2022-09-03T06:10:20;98178.66;;;14.98;57.72
72587;BME280;60621;49.576;11.024;2022-09-03T06:11:27;98174.84;;;14.99;57.38
72587;BME280;60621;49.576;11.024;2022-09-03T06:12:29;98179.03;;;15.00;57.03
72587;BME280;60621;49.576;11.024;2022-09-03T06:13:32;98187.34;;;15.02;56.82
72587;BME280;60621;49.576;11.024;2022-09-03T06:14:34;98177.88;;;15.05;56.82
72587;BME280;60621;49.576;11.024;2022-09-03T06:15:35;98188.47;;;15.08;56.86
72587;BME280;60621;49.576;11.024;2022-09-03T06:16:39;98186.19;;;15.07;56.76
72587;BME280;60621;49.576;11.024;2022-09-03T06:17:42;98185.44;;;15.10;56.86
72587;BME280;60621;49.576;11.024;2022-09-03T06:18:43;98183.16;;;15.12;56.68
72587;BME280;60621;49.576;11.024;2022-09-03T06:19:44;98185.38;;;15.17;56.50
72587;BME280;60621;49.576;11.024;2022-09-03T06:20:57;98189.56;;;15.22;56.65
72587;BME280;60621;49.576;11.024;2022-09-03T06:21:59;98182.72;;;15.24;56.69
72587;BME280;60621;49.576;11.024;2022-09-03T06:23:01;98183.44;;;15.28;56.84
72587;BME280;60621;49.576;11.024;2022-09-03T06:24:03;98186.47;;;15.34;56.46
72587;BME280;60621;49.576;11.024;2022-09-03T06:25:04;98186.47;;;15.34;56.37
72587;BME280;60621;49.576;11.024;2022-09-03T06:26:09;98186.41;;;15.41;56.46